Time;durP1;ratioP1;P1;durP2;ratioP2;P2;SDS_P1;SDS_P2;PMS_P1;PMS_P2;Temp;Humidity;BMP_temperature;BMP_pressure;BME280_temperature;BME280_humidity;BME280_pressure;Samples;Min_cycle;Max_cycle;Signal;HPM_P1;HPM_P2
2022/11/28 00:00:27;;;;;;;13.70;8.07;;;;;;;;;;6226337;22;20019;-87
2022/11/28 00:02:53;;;;;;;13.05;7.88;;;;;;;;;;6252013;22;20441;-87
2022/11/28 00:05:19;;;;;;;13.13;7.93;;;;;;;;;;6225278;22;20067;-91
2022/11/28 00:07:45;;;;;;;11.02;7.97;;;;;;;;;;6250426;22;20522;-91
2022/11/28 00:10:11;;;;;;;13.35;7.78;;;;;;;;;;6250600;22;20016;-89
2022/11/28 00:12:37;;;;;;;11.27;8.02;;;;;;;;;;6250818;22;20019;-87
2022/11/28 00:15:04;;;;;;;11.55;8.52;;;;;;;;;;6225272;22;20096;-87
2022/11/28 00:17:30;;;;;;;15.50;8.70;;;;;;;;;;6250294;22;20102;-87
2022/11/28 00:19:56;;;;;;;14.05;8.68;;;;;;;;;;6225557;22;20048;-87
2022/11/28 00:22:22;;;;;;;13.68;8.70;;;;;;;;;;6251003;22;20034;-87
2022/11/28 00:24:48;;;;;;;12.75;8.65;;;;;;;;;;6225838;22;20030;-88
2022/11/28 00:27:14;;;;;;;10.55;8.38;;;;;;;;;;6225466;22;20016;-93
2022/11/28 00:29:40;;;;;;;13.38;8.68;;;;;;;;;;6250478;22;20047;-96
2022/11/28 00:32:06;;;;;;;10.93;8.18;;;;;;;;;;6250620;22;20042;-94
2022/11/28 00:34:32;;;;;;;11.07;8.18;;;;;;;;;;6250555;22;20460;-87
2022/11/28 00:36:58;;;;;;;13.30;8.88;;;;;;;;;;6250508;22;20047;-89
2022/11/28 00:39:24;;;;;;;13.43;8.75;;;;;;;;;;6225895;22;20064;-89
2022/11/28 00:41:50;;;;;;;9.80;8.23;;;;;;;;;;6225163;22;20011;-92
2022/11/28 00:44:16;;;;;;;13.68;8.77;;;;;;;;;;6278133;22;20072;-94
2022/11/28 00:46:42;;;;;;;13.57;8.80;;;;;;;;;;6224871;22;20086;-94
2022/11/28 00:49:08;;;;;;;13.45;8.93;;;;;;;;;;6250855;22;20376;-86
2022/11/28 00:51:35;;;;;;;11.48;8.48;;;;;;;;;;6224664;22;20441;-89
2022/11/28 00:54:02;;;;;;;10.98;7.90;;;;;;;;;;6224704;22;20023;-87
2022/11/28 00:56:31;;;;;;;12.73;8.75;;;6.30;99.90;;;;;;6224751;22;20054;-87
2022/11/28 00:58:57;;;;;;;15.35;8.35;;;;;;;;;;6224667;22;20050;-87
2022/11/28 01:01:25;;;;;;;13.63;8.60;;;;;;;;;;6224673;22;20416;-87
2022/11/28 01:03:52;;;;;;;9.48;7.43;;;;;;;;;;6249920;22;20391;-89
2022/11/28 01:06:22;;;;;;;9.27;7.63;;;;;;;;;;6224328;22;20457;-87
2022/11/28 01:08:48;;;;;;;10.30;7.38;;;;;;;;;;6249836;22;20020;-93
2022/11/28 01:11:14;;;;;;;8.38;7.03;;;;;;;;;;6276941;22;20012;-93
2022/11/28 01:13:40;;;;;;;11.18;8.05;;;;;;;;;;6224386;22;20062;-87
2022/11/28 01:16:07;;;;;;;12.30;8.35;;;;;;;;;;6225538;22;20048;-87
2022/11/28 01:18:33;;;;;;;12.00;7.60;;;;;;;;;;6225888;22;20012;-92
2022/11/28 01:20:59;;;;;;;11.68;7.75;;;;;;;;;;6226721;22;20048;-89
2022/11/28 01:23:25;;;;;;;14.18;8.57;;;;;;;;;;6228263;22;20019;-94
2022/11/28 01:25:51;;;;;;;10.65;8.13;;;;;;;;;;6225635;22;20047;-87
2022/11/28 01:28:17;;;;;;;9.90;7.97;;;;;;;;;;6251501;22;20016;-88
2022/11/28 01:30:43;;;;;;;12.65;8.07;;;;;;;;;;6249641;22;20018;-87
2022/11/28 01:33:09;;;;;;;10.00;7.93;;;;;;;;;;6249689;22;20020;-88
2022/11/28 01:35:35;;;;;;;15.52;8.00;;;;;;;;;;6224096;22;20364;-87
2022/11/28 01:38:01;;;;;;;21.33;8.23;;;;;;;;;;6224178;22;20361;-87
2022/11/28 01:40:27;;;;;;;11.15;8.13;;;;;;;;;;6224280;22;20122;-87
2022/11/28 01:42:53;;;;;;;10.23;8.32;;;;;;;;;;6224174;22;20063;-87
2022/11/28 01:45:24;;;;;;;10.45;8.38;;;;;;;;;;6249545;22;20384;-88
2022/11/28 01:47:51;;;;;;;16.13;9.10;;;;;;;;;;6276464;22;20095;-88
2022/11/28 01:50:18;;;;;;;11.73;7.68;;;;;;;;;;6224222;22;20051;-87
2022/11/28 01:52:45;;;;;;;11.18;7.65;;;;;;;;;;6224147;22;20016;-88
2022/11/28 01:55:12;;;;;;;11.13;7.95;;;;;;;;;;6224261;22;20015;-89
2022/11/28 01:57:39;;;;;;;17.10;8.30;;;;;;;;;;6249415;22;20073;-88
2022/11/28 02:00:07;;;;;;;16.25;8.40;;;;;;;;;;6224164;22;20469;-87
2022/11/28 02:02:41;;;;;;;13.38;8.65;;;;;;;;;;6227051;22;20019;-87
2022/11/28 02:05:08;;;;;;;10.15;7.57;;;;;;;;;;6227532;22;20066;-87
2022/11/28 02:07:34;;;;;;;12.45;8.82;;;;;;;;;;6225705;22;20400;-87
2022/11/28 02:10:01;;;;;;;16.65;9.93;;;;;;;;;;6226029;22;20011;-88
2022/11/28 02:12:30;;;;;;;13.40;8.20;;;;;;;;;;6225983;22;20465;-87
2022/11/28 02:15:08;;;;;;;12.07;9.10;;;;;;;;;;6226302;22;20015;-88
2022/11/28 02:17:44;;;;;;;14.77;10.25;;;;;;;;;;6225954;22;20022;-88
2022/11/28 02:20:16;;;;;;;20.83;10.18;;;;;;;;;;6251540;22;20503;-88
2022/11/28 02:22:51;;;;;;;19.10;11.00;;;;;;;;;;6225897;22;20085;-88
2022/11/28 02:25:17;;;;;;;13.38;9.00;;;;;;;;;;6251980;22;20444;-88
2022/11/28 02:27:44;;;;;;;16.05;10.40;;;;;;;;;;6225789;22;20047;-87
2022/11/28 02:30:19;;;;;;;14.75;10.82;;;;;;;;;;6226412;22;20077;-87
2022/11/28 02:32:51;;;;;;;17.88;10.55;;;;;;;;;;6226241;22;20015;-88
2022/11/28 02:35:17;;;;;;;16.60;10.70;;;;;;;;;;6225887;22;20047;-87
2022/11/28 02:37:51;;;;;;;16.88;11.82;;;;;;;;;;6225674;22;20078;-87
2022/11/28 02:40:38;;;;;;;20.63;11.63;;;6.60;99.90;;;;;;6225847;22;20395;-88
2022/11/28 02:43:30;;;;;;;21.20;10.90;;;6.80;99.90;;;;;;6250985;22;20015;-88
2022/11/28 02:46:02;;;;;;;14.25;11.15;;;;;;;;;;6225662;22;20016;-88
2022/11/28 02:48:28;;;;;;;16.73;12.02;;;;;;;;;;6225500;22;20016;-88
2022/11/28 02:51:05;;;;;;;19.23;10.90;;;;;;;;;;6225634;22;20069;-88
2022/11/28 02:53:32;;;;;;;17.30;12.13;;;;;;;;;;6225606;22;20029;-89
2022/11/28 02:55:59;;;;;;;15.77;12.07;;;;;;;;;;6226090;22;20069;-88
2022/11/28 02:58:25;;;;;;;18.63;13.05;;;;;;;;;;6225515;22;20526;-88
2022/11/28 03:00:51;;;;;;;19.58;12.98;;;;;;;;;;6250843;22;20012;-88
2022/11/28 03:03:39;;;;;;;18.35;12.63;;;6.50;99.90;;;;;;6250856;22;20027;-88
2022/11/28 03:06:05;;;;;;;17.45;13.05;;;;;;;;;;6251528;22;20011;-88
2022/11/28 03:08:49;;;;;;;19.40;13.48;;;;;;;;;;6225335;22;20026;-88
2022/11/28 03:11:19;;;;;;;18.02;13.15;;;;;;;;;;6250368;22;20020;-88
2022/11/28 03:13:52;;;;;;;17.80;13.00;;;;;;;;;;6250280;22;20020;-87
2022/11/28 03:16:29;;;;;;;16.60;13.18;;;;;;;;;;6225069;22;20011;-87
2022/11/28 03:18:55;;;;;;;17.85;12.77;;;;;;;;;;6225181;22;20090;-88
2022/11/28 03:21:26;;;;;;;23.70;13.32;;;;;;;;;;6277778;22;20054;-88
2022/11/28 03:23:56;;;;;;;22.08;15.40;;;;;;;;;;6226712;22;20016;-87
2022/11/28 03:26:26;;;;;;;20.15;12.02;;;;;;;;;;6225305;22;20022;-87
2022/11/28 03:29:11;;;;;;;18.10;12.80;;;;;;;;;;6225284;22;20420;-87
2022/11/28 03:31:57;;;;;;;17.55;13.57;;;;;;;;;;6225899;22;20027;-87
2022/11/28 03:34:25;;;;;;;17.05;12.35;;;;;;;;;;6225066;22;20067;-87
2022/11/28 03:36:59;;;;;;;17.38;12.10;;;;;;;;;;6250325;22;20160;-87
2022/11/28 03:39:29;;;;;;;14.93;11.32;;;;;;;;;;6225217;22;20016;-87
2022/11/28 03:42:08;;;;;;;18.88;11.88;;;;;;;;;;6251097;22;20016;-88
2022/11/28 03:44:51;;;;;;;18.85;12.25;;;6.70;99.90;;;;;;6225122;22;20472;-87
2022/11/28 03:47:17;;;;;;;16.58;12.00;;;;;;;;;;6224980;22;20011;-88
2022/11/28 03:49:53;;;;;;;20.17;13.68;;;;;;;;;;6225174;22;20015;-86
2022/11/28 03:52:31;;;;;;;21.45;13.57;;;;;;;;;;6225109;22;20012;-86
2022/11/28 03:55:01;;;;;;;17.48;12.90;;;;;;;;;;6226456;22;20015;-87
2022/11/28 03:57:35;;;;;;;18.40;12.90;;;;;;;;;;6226320;22;20015;-86
2022/11/28 04:00:06;;;;;;;14.75;11.57;;;;;;;;;;6225196;22;20047;-87
2022/11/28 04:02:36;;;;;;;20.00;14.60;;;;;;;;;;6225602;22;20045;-87
2022/11/28 04:05:08;;;;;;;16.75;13.15;;;;;;;;;;6250419;22;20054;-88
2022/11/28 04:07:34;;;;;;;16.58;12.80;;;;;;;;;;6225018;22;20015;-88
2022/11/28 04:10:03;;;;;;;19.73;13.55;;;;;;;;;;6250915;22;20050;-91
2022/11/28 04:12:37;;;;;;;20.58;14.05;;;;;;;;;;6226034;22;20095;-86
2022/11/28 04:15:11;;;;;;;17.42;12.82;;;;;;;;;;6226893;22;20449;-86
2022/11/28 04:18:09;;;;;;;21.50;14.02;;;;;;;;;;6226784;22;20019;-86
2022/11/28 04:20:38;;;;;;;19.35;13.68;;;;;;;;;;6100937;23;20025;-86
2022/11/28 04:23:07;;;;;;;21.20;13.35;;;;;;;;;;6100356;23;20022;-86
2022/11/28 04:25:35;;;;;;;21.08;14.30;;;;;;;;;;6100606;23;20029;-86
2022/11/28 04:28:04;;;;;;;18.60;13.52;;;;;;;;;;6075841;23;20079;-86
2022/11/28 04:30:31;;;;;;;16.98;14.05;;;;;;;;;;6076074;23;20018;-86
2022/11/28 04:33:00;;;;;;;19.42;14.02;;;;;;;;;;6099916;23;20467;-86
2022/11/28 04:35:32;;;;;;;18.55;12.98;;;;;;;;;;6099870;23;20064;-86
2022/11/28 04:37:59;;;;;;;19.27;14.10;;;;;;;;;;6075812;23;20152;-87
2022/11/28 04:40:26;;;;;;;17.80;13.18;;;;;;;;;;6075833;23;20010;-87
2022/11/28 04:42:54;;;;;;;19.60;14.68;;;;;;;;;;6076656;23;20101;-90
2022/11/28 04:45:24;;;;;;;19.23;14.25;;;;;;;;;;6075818;23;20017;-87
2022/11/28 04:47:50;;;;;;;16.45;12.07;;;;;;;;;;6075722;23;20096;-87
2022/11/28 04:50:16;;;;;;;15.45;13.07;;;;;;;;;;6075780;23;20096;-86
2022/11/28 04:52:45;;;;;;;16.15;12.45;;;;;;;;;;6075517;23;20018;-87
2022/11/28 04:55:41;;;;;;;16.42;12.55;;;7.20;99.90;;;;;;6115825;22;20014;-86
2022/11/28 04:58:26;;;;;;;17.52;12.65;;;;;;;;;;6224590;22;20015;-86
2022/11/28 05:00:53;;;;;;;17.83;13.27;;;;;;;;;;6224319;22;20098;-86
2022/11/28 05:03:20;;;;;;;16.27;12.63;;;;;;;;;;6224553;22;20020;-87
2022/11/28 05:05:51;;;;;;;17.13;12.48;;;;;;;;;;6223994;22;20480;-86
2022/11/28 05:08:17;;;;;;;17.33;13.15;;;;;;;;;;6249468;22;20487;-87
2022/11/28 05:10:43;;;;;;;16.58;12.98;;;;;;;;;;6249366;22;20018;-87
2022/11/28 05:13:10;;;;;;;16.15;11.82;;;;;;;;;;6224267;22;20019;-87
2022/11/28 05:15:36;;;;;;;16.88;11.93;;;;;;;;;;6249591;22;20095;-87
2022/11/28 05:18:02;;;;;;;15.00;11.98;;;;;;;;;;6224170;22;20090;-86
2022/11/28 05:20:28;;;;;;;14.45;10.80;;;;;;;;;;6224315;22;20035;-87
2022/11/28 05:22:54;;;;;;;15.02;11.13;;;;;;;;;;6250857;22;20018;-87
2022/11/28 05:25:20;;;;;;;14.70;11.77;;;;;;;;;;6224303;22;20043;-87
2022/11/28 05:27:47;;;;;;;17.27;12.25;;;;;;;;;;6224156;22;20016;-86
2022/11/28 05:30:13;;;;;;;15.40;11.68;;;;;;;;;;6249707;22;20012;-91
2022/11/28 05:32:39;;;;;;;13.07;11.40;;;;;;;;;;6249389;22;20318;-86
2022/11/28 05:35:06;;;;;;;18.65;11.73;;;;;;;;;;6224232;22;20012;-87
2022/11/28 05:37:33;;;;;;;15.07;11.27;;;;;;;;;;6250741;22;20027;-86
2022/11/28 05:39:59;;;;;;;15.43;11.25;;;;;;;;;;6252141;22;20011;-86
2022/11/28 05:42:27;;;;;;;14.05;11.18;;;;;;;;;;6252931;22;20019;-86
2022/11/28 05:44:53;;;;;;;19.42;11.27;;;;;;;;;;6251679;22;20016;-86
2022/11/28 05:47:19;;;;;;;14.93;11.40;;;;;;;;;;6252813;22;20051;-86
2022/11/28 05:49:46;;;;;;;16.70;11.73;;;;;;;;;;6227114;22;20019;-87
2022/11/28 05:52:12;;;;;;;15.02;11.52;;;;;;;;;;6251581;22;20023;-86
2022/11/28 05:54:41;;;;;;;15.30;11.52;;;;;;;;;;6251690;22;20098;-86
2022/11/28 05:57:07;;;;;;;13.82;10.43;;;;;;;;;;6226705;22;20012;-86
2022/11/28 05:59:33;;;;;;;17.10;10.57;;;;;;;;;;6228054;22;20016;-86
2022/11/28 06:01:59;;;;;;;13.73;9.00;;;;;;;;;;6252504;22;20082;-87
2022/11/28 06:04:25;;;;;;;13.65;10.63;;;;;;;;;;6226420;22;20019;-86
2022/11/28 06:06:51;;;;;;;15.45;11.27;;;;;;;;;;6226251;22;20031;-86
2022/11/28 06:09:17;;;;;;;18.77;10.38;;;;;;;;;;6227169;22;20058;-86
2022/11/28 06:11:43;;;;;;;12.65;10.07;;;;;;;;;;6252403;22;20016;-86
2022/11/28 06:14:10;;;;;;;12.02;9.23;;;;;;;;;;6252300;22;20027;-86
2022/11/28 06:16:36;;;;;;;12.98;10.48;;;;;;;;;;6228066;22;20046;-86
2022/11/28 06:19:03;;;;;;;14.18;10.23;;;;;;;;;;6226841;22;20016;-86
2022/11/28 06:21:30;;;;;;;13.70;10.07;;;;;;;;;;6253278;22;20054;-86
2022/11/28 06:23:56;;;;;;;15.27;10.55;;;;;;;;;;6226848;22;20090;-85
2022/11/28 06:26:23;;;;;;;20.60;9.93;;;;;;;;;;6253769;22;20015;-87
2022/11/28 06:28:49;;;;;;;15.32;10.93;;;;;;;;;;6252409;22;20019;-86
2022/11/28 06:31:17;;;;;;;14.77;11.02;;;;;;;;;;6252162;22;20019;-87
2022/11/28 06:33:43;;;;;;;14.70;10.50;;;;;;;;;;6253686;22;20022;-86
2022/11/28 06:36:10;;;;;;;14.43;9.93;;;;;;;;;;6253594;22;20050;-87
2022/11/28 06:38:36;;;;;;;15.02;9.98;;;;;;;;;;6252860;22;20024;-87
2022/11/28 06:41:04;;;;;;;14.02;10.10;;;;;;;;;;6227254;22;20512;-87
2022/11/28 06:43:30;;;;;;;16.02;10.95;;;;;;;;;;6227405;22;20109;-86
2022/11/28 06:45:56;;;;;;;14.80;10.18;;;;;;;;;;6253215;22;20042;-86
2022/11/28 06:48:23;;;;;;;15.27;10.57;;;;;;;;;;6252881;22;20019;-87
2022/11/28 06:50:49;;;;;;;11.25;8.77;;;;;;;;;;6226995;22;20068;-86
2022/11/28 06:53:15;;;;;;;13.43;9.73;;;;;;;;;;6227726;22;20015;-86
2022/11/28 06:55:42;;;;;;;18.75;10.27;;;;;;;;;;6252141;22;20051;-86
2022/11/28 06:58:08;;;;;;;11.88;8.65;;;;;;;;;;6252142;22;20029;-87
2022/11/28 07:00:34;;;;;;;12.82;10.10;;;;;;;;;;6250505;22;20012;-86
2022/11/28 07:03:00;;;;;;;11.93;9.95;;;;;;;;;;6225917;22;20015;-87
2022/11/28 07:05:27;;;;;;;10.10;8.18;;;;;;;;;;6227126;22;20011;-86
2022/11/28 07:07:54;;;;;;;11.77;9.98;;;;;;;;;;6252370;22;20016;-86
2022/11/28 07:10:20;;;;;;;11.73;8.82;;;;;;;;;;6227119;22;20020;-86
2022/11/28 07:12:46;;;;;;;12.18;8.40;;;;;;;;;;6252750;22;20027;-87
2022/11/28 07:15:12;;;;;;;11.60;8.20;;;;;;;;;;6253720;22;20016;-86
2022/11/28 07:17:38;;;;;;;10.57;8.07;;;;;;;;;;6227377;22;20051;-86
2022/11/28 07:20:05;;;;;;;13.32;8.65;;;;;;;;;;6228361;22;20015;-87
2022/11/28 07:22:31;;;;;;;12.25;8.93;;;;;;;;;;6254288;22;20303;-86
2022/11/28 07:24:57;;;;;;;11.43;8.48;;;;;;;;;;6228535;22;20141;-87
2022/11/28 07:27:23;;;;;;;11.40;8.50;;;;;;;;;;6227529;22;20016;-86
2022/11/28 07:29:49;;;;;;;10.75;8.07;;;;;;;;;;6252660;22;20384;-86
2022/11/28 07:32:15;;;;;;;9.75;7.63;;;;;;;;;;6227599;22;20054;-86
2022/11/28 07:34:42;;;;;;;14.73;8.93;;;;;;;;;;6253191;22;20479;-86
2022/11/28 07:37:08;;;;;;;11.43;7.97;;;;;;;;;;6252309;22;20024;-86
2022/11/28 07:39:34;;;;;;;9.30;7.95;;;;;;;;;;6253154;22;20016;-86
2022/11/28 07:42:00;;;;;;;9.90;7.78;;;;;;;;;;6252539;22;20055;-86
2022/11/28 07:44:26;;;;;;;10.38;7.88;;;;;;;;;;6253183;22;20016;-86
2022/11/28 07:46:52;;;;;;;11.38;8.60;;;;;;;;;;6252849;22;20016;-86
2022/11/28 07:49:18;;;;;;;10.38;7.93;;;;;;;;;;6252945;22;20201;-87
2022/11/28 07:51:44;;;;;;;11.20;8.20;;;;;;;;;;6253221;22;20053;-86
2022/11/28 07:54:10;;;;;;;10.93;7.32;;;;;;;;;;6252462;22;20019;-86
2022/11/28 07:56:37;;;;;;;11.00;7.55;;;;;;;;;;6227562;22;20016;-87
2022/11/28 07:59:04;;;;;;;12.32;7.45;;;;;;;;;;6227168;22;20090;-87
2022/11/28 08:01:32;;;;;;;10.30;7.95;;;;;;;;;;6254013;22;20077;-88
2022/11/28 08:03:59;;;;;;;10.13;7.55;;;;;;;;;;6252811;22;20015;-89
2022/11/28 08:06:26;;;;;;;11.30;8.23;;;;;;;;;;6253543;22;20015;-91
2022/11/28 08:08:53;;;;;;;11.20;7.20;;;;;;;;;;6227597;22;20020;-87
2022/11/28 08:11:20;;;;;;;10.75;7.78;;;;;;;;;;6228310;22;20074;-91
2022/11/28 08:13:46;;;;;;;9.85;7.55;;;;;;;;;;6252968;22;20095;-88
2022/11/28 08:16:14;;;;;;;9.27;7.53;;;;;;;;;;6227085;22;20026;-88
2022/11/28 08:18:42;;;;;;;13.38;7.45;;;;;;;;;;6252452;22;20055;-86
2022/11/28 08:21:10;;;;;;;9.45;7.22;;;;;;;;;;6253580;22;20024;-88
2022/11/28 08:23:37;;;;;;;15.52;7.18;;;;;;;;;;6281017;22;20018;-88
2022/11/28 08:26:06;;;;;;;11.90;7.60;;;;;;;;;;6253375;22;20023;-87
2022/11/28 08:28:32;;;;;;;9.70;7.68;;;;;;;;;;6227391;22;20468;-88
2022/11/28 08:31:00;;;;;;;8.70;6.72;;;;;;;;;;6252382;22;20020;-89
2022/11/28 08:33:27;;;;;;;9.63;7.10;;;;;;;;;;6227017;22;20059;-86
2022/11/28 08:35:53;;;;;;;7.80;6.57;;;;;;;;;;6253224;22;20015;-88
2022/11/28 08:38:19;;;;;;;10.25;6.95;;;;;;;;;;6227843;22;20448;-88
2022/11/28 08:40:45;;;;;;;10.98;7.18;;;;;;;;;;6252677;22;20070;-89
2022/11/28 08:43:12;;;;;;;9.00;6.88;;;;;;;;;;6253268;22;20016;-86
2022/11/28 08:45:38;;;;;;;8.32;6.65;;;;;;;;;;6227584;22;20016;-86
2022/11/28 08:48:05;;;;;;;8.65;7.00;;;;;;;;;;6252457;22;20070;-86
2022/11/28 08:50:31;;;;;;;8.60;7.68;;;;;;;;;;6228477;22;20018;-88
2022/11/28 08:52:57;;;;;;;11.70;6.43;;;;;;;;;;6228693;22;20027;-86
2022/11/28 08:55:23;;;;;;;9.40;6.65;;;;;;;;;;6253446;22;20062;-86
2022/11/28 08:57:49;;;;;;;8.40;6.20;;;;;;;;;;6253510;22;20023;-89
2022/11/28 09:00:16;;;;;;;7.82;6.10;;;;;;;;;;6227261;22;20016;-86
2022/11/28 09:02:42;;;;;;;8.02;6.90;;;;;;;;;;6252207;22;20046;-86
2022/11/28 09:05:08;;;;;;;8.93;6.13;;;;;;;;;;6279754;22;20026;-86
2022/11/28 09:07:34;;;;;;;9.43;6.13;;;;;;;;;;6226874;22;20020;-86
2022/11/28 09:10:00;;;;;;;12.00;6.90;;;;;;;;;;6252161;22;20124;-86
2022/11/28 09:12:26;;;;;;;7.03;5.80;;;;;;;;;;6226223;22;20051;-87
2022/11/28 09:14:53;;;;;;;9.43;6.78;;;;;;;;;;6251842;22;20496;-86
2022/11/28 09:17:19;;;;;;;8.23;6.28;;;;;;;;;;6253079;22;20015;-86
2022/11/28 09:19:45;;;;;;;7.65;6.10;;;;;;;;;;6251953;22;20022;-86
2022/11/28 09:22:11;;;;;;;7.65;6.00;;;;;;;;;;6278888;22;20048;-86
2022/11/28 09:24:37;;;;;;;6.75;5.40;;;;;;;;;;6251838;22;20023;-86
2022/11/28 09:27:03;;;;;;;8.60;5.80;;;;;;;;;;6252017;22;20015;-86
2022/11/28 09:29:29;;;;;;;8.60;6.25;;;;;;;;;;6252520;22;20457;-86
2022/11/28 09:31:56;;;;;;;7.50;5.38;;;;;;;;;;6251376;22;20071;-87
2022/11/28 09:34:22;;;;;;;12.75;5.85;;;;;;;;;;6225845;22;20035;-86
2022/11/28 09:36:48;;;;;;;8.00;6.15;;;;;;;;;;6250458;22;20045;-86
2022/11/28 09:39:15;;;;;;;9.50;6.35;;;;;;;;;;6225033;22;20023;-86
2022/11/28 09:42:00;;;;;;;9.23;7.10;;;;;;;;;;6250172;22;20095;-87
2022/11/28 09:44:33;;;;;;;10.55;6.03;;;;;;;;;;6250923;22;20012;-86
2022/11/28 09:47:00;;;;;;;9.50;6.15;;;;;;;;;;6249921;22;20538;-86
2022/11/28 09:49:26;;;;;;;10.00;7.25;;;;;;;;;;6250505;22;20020;-86
2022/11/28 09:51:54;;;;;;;10.73;6.70;;;;;;;;;;6250939;22;20015;-86
2022/11/28 09:54:39;;;;;;;9.82;6.97;;;;;;;;;;6250889;22;20091;-86
2022/11/28 09:57:13;;;;;;;12.13;7.20;;;;;;;;;;6251105;22;20027;-86
2022/11/28 09:59:39;;;;;;;13.50;6.95;;;;;;;;;;6225644;22;20020;-86
2022/11/28 10:02:09;;;;;;;12.02;7.82;;;;;;;;;;6250753;22;20015;-86
2022/11/28 10:04:38;;;;;;;9.73;7.13;;;;;;;;;;6249434;22;20461;-86
2022/11/28 10:07:26;;;;;;;12.80;8.35;;;;;;;;;;6224064;22;20074;-86
2022/11/28 10:09:58;;;;;;;11.63;7.53;;;;;;;;;;6250706;22;20338;-87
2022/11/28 10:13:07;;;;;;;10.07;7.82;;;8.20;99.90;;;;;;6224135;22;20524;-86
2022/11/28 10:15:33;;;;;;;9.88;7.85;;;;;;;;;;6249389;22;20046;-86
2022/11/28 10:18:02;;;;;;;14.05;8.55;;;;;;;;;;6249242;22;20361;-86
2022/11/28 10:20:31;;;;;;;13.50;8.65;;;;;;;;;;6224103;22;20457;-86
2022/11/28 10:23:00;;;;;;;11.32;8.50;;;;;;;;;;6277001;22;20066;-87
2022/11/28 10:25:47;;;;;;;13.07;9.30;;;;;;;;;;6226495;22;20103;-86
2022/11/28 10:28:16;;;;;;;12.50;9.23;;;;;;;;;;6252254;22;20153;-86
2022/11/28 10:30:44;;;;;;;11.23;7.95;;;;;;;;;;6279608;22;20019;-86
2022/11/28 10:33:11;;;;;;;16.55;8.95;;;;;;;;;;6252472;22;20448;-86
2022/11/28 10:35:55;;;;;;;15.30;10.02;;;;;;;;;;6251853;22;20018;-87
2022/11/28 10:38:25;;;;;;;12.20;8.65;;;;;;;;;;6227052;22;20015;-86
2022/11/28 10:41:00;;;;;;;12.30;8.20;;;;;;;;;;6251383;22;20016;-86
2022/11/28 10:43:30;;;;;;;13.90;9.50;;;;;;;;;;6251970;22;20015;-86
2022/11/28 10:46:05;;;;;;;16.77;9.80;;;;;;;;;;6226202;22;20019;-86
2022/11/28 10:49:00;;;;;;;15.13;8.63;;;;;;;;;;6226786;22;20310;-86
2022/11/28 10:51:37;;;;;;;14.75;9.35;;;;;;;;;;6078268;23;20028;-86
2022/11/28 10:54:13;;;;;;;12.93;8.60;;;;;;;;;;6101778;23;20026;-86
2022/11/28 10:56:39;;;;;;;11.93;7.82;;;;;;;;;;6102043;23;20029;-87
2022/11/28 10:59:05;;;;;;;14.30;8.88;;;;;;;;;;6077403;23;20097;-86
2022/11/28 11:01:36;;;;;;;10.18;8.27;;;;;;;;;;6101512;23;20022;-87
2022/11/28 11:04:03;;;;;;;10.18;7.85;;;;;;;;;;6101575;23;20018;-87
2022/11/28 11:06:29;;;;;;;10.60;7.63;;;;;;;;;;6077213;23;20415;-87
2022/11/28 11:08:55;;;;;;;10.40;7.65;;;;;;;;;;6101382;23;20021;-87
2022/11/28 11:11:34;;;;;;;11.07;7.50;;;;;;;;;;6077181;23;20014;-87
2022/11/28 11:14:02;;;;;;;12.25;7.55;;;;;;;;;;6077100;23;20102;-87
2022/11/28 11:16:47;;;;;;;11.23;7.10;;;;;;;;;;6077217;23;20017;-87
2022/11/28 11:19:22;;;;;;;10.18;6.90;;;;;;;;;;6101435;23;20547;-87
2022/11/28 11:21:57;;;;;;;11.18;7.30;;;;;;;;;;6101606;23;20125;-87
2022/11/28 11:24:23;;;;;;;12.25;6.95;;;;;;;;;;6078060;23;20118;-87
2022/11/28 11:26:49;;;;;;;11.80;6.95;;;;;;;;;;6089714;23;20082;-94
2022/11/28 11:29:29;;;;;;;8.27;6.88;;;;;;;;;;6197883;23;20017;-95
2022/11/28 11:32:02;;;;;;;11.25;7.38;;;;;;;;;;6221651;23;20016;-93
2022/11/28 11:34:31;;;;;;;10.90;7.55;;;;;;;;;;6198584;23;20091;-92
2022/11/28 11:37:17;;;;;;;8.57;6.40;;;;;;;;;;6223297;23;20016;-88
2022/11/28 11:39:53;;;;;;;12.18;7.65;;;;;;;;;;6249078;23;20019;-89
2022/11/28 11:42:24;;;;;;;14.13;7.40;;;;;;;;;;6197505;23;20016;-92
2022/11/28 11:44:51;;;;;;;10.23;7.47;;;;;;;;;;6222632;23;20085;-89
2022/11/28 11:47:17;;;;;;;10.13;6.97;;;;;;;;;;6249475;23;20027;-93
2022/11/28 11:49:50;;;;;;;13.38;8.93;;;;;;;;;;6221990;23;20056;-92
2022/11/28 11:52:25;;;;;;;13.25;7.20;;;;;;;;;;6223601;23;20340;-90
2022/11/28 11:54:58;;;;;;;9.52;6.70;;;;;;;;;;6221424;23;20027;-89
2022/11/28 11:57:43;;;;;;;11.48;7.13;;;;;;;;;;6196397;23;20016;-87
2022/11/28 12:00:10;;;;;;;8.35;6.40;;;;;;;;;;6247238;23;20099;-87
2022/11/28 12:02:39;;;;;;;11.88;7.93;;;;;;;;;;6221345;23;20016;-87
2022/11/28 12:05:16;;;;;;;10.60;7.53;;;;;;;;;;6196708;23;20350;-87
2022/11/28 12:08:02;;;;;;;9.25;6.05;;;;;;;;;;6195481;23;20030;-86
2022/11/28 12:10:36;;;;;;;9.48;6.45;;;;;;;;;;6221527;22;20107;-87
2022/11/28 12:13:03;;;;;;;9.00;6.05;;;;;;;;;;6251096;22;20016;-87
2022/11/28 12:15:29;;;;;;;10.88;6.45;;;;;;;;;;6278434;22;20041;-87
2022/11/28 12:17:58;;;;;;;8.68;6.45;;;;;;;;;;6250844;22;20023;-86
2022/11/28 12:20:29;;;;;;;7.43;5.93;;;;;;;;;;6278050;22;20333;-87
2022/11/28 12:23:01;;;;;;;6.15;5.45;;;;;;;;;;6226615;22;20047;-87
2022/11/28 12:25:39;;;;;;;6.57;5.72;;;;;;;;;;6251063;22;20015;-86
2022/11/28 12:28:37;;;;;;;8.75;6.57;;;;;;;;;;6278303;22;20512;-86
2022/11/28 12:31:16;;;;;;;8.05;5.80;;;;;;;;;;6077616;23;20447;-88
2022/11/28 12:33:48;;;;;;;10.20;6.10;;;;;;;;;;6101065;23;20014;-88
2022/11/28 12:36:20;;;;;;;8.27;6.18;;;;;;;;;;6125992;23;20018;-87
2022/11/28 12:38:49;;;;;;;7.47;5.97;;;;;;;;;;6076907;23;20360;-90
2022/11/28 12:41:31;;;;;;;10.50;6.20;;;;;;;;;;6125071;23;20018;-88
2022/11/28 12:44:09;;;;;;;8.43;6.07;;;;;;;;;;6076216;23;20025;-88
2022/11/28 12:46:42;;;;;;;6.38;5.15;;;;;;;;;;6076228;23;20498;-86
2022/11/28 12:49:31;;;;;;;7.70;6.10;;;;;;;;;;6076557;23;20452;-87
2022/11/28 12:51:57;;;;;;;8.35;6.45;;;;;;;;;;6124829;23;20249;-86
2022/11/28 12:54:33;;;;;;;8.45;6.45;;;;;;;;;;6075926;23;20029;-87
2022/11/28 12:57:07;;;;;;;7.28;6.07;;;;;;;;;;6076687;23;20022;-90
2022/11/28 12:59:51;;;;;;;10.73;6.90;;;;;;;;;;6101063;23;20030;-87
2022/11/28 13:02:25;;;;;;;9.68;6.55;;;;;;;;;;6077574;23;20022;-89
2022/11/28 13:04:51;;;;;;;10.68;6.78;;;;;;;;;;6100400;23;20036;-88
2022/11/28 13:07:32;;;;;;;12.38;7.00;;;;;;;;;;6195937;22;20066;-86
2022/11/28 13:10:04;;;;;;;9.52;7.30;;;;;;;;;;6225796;22;20024;-88
2022/11/28 13:12:44;;;;;;;11.40;6.25;;;;;;;;;;6250181;22;20341;-87
2022/11/28 13:15:19;;;;;;;9.80;7.05;;;;;;;;;;6225175;22;20016;-90
2022/11/28 13:17:48;;;;;;;10.73;7.82;;;;;;;;;;6250231;22;20514;-91
2022/11/28 13:20:21;;;;;;;11.73;7.10;;;;;;;;;;6278036;22;20012;-90
2022/11/28 13:23:03;;;;;;;12.55;7.70;;;;;;;;;;6251834;22;20417;-89
2022/11/28 13:25:39;;;;;;;12.60;7.10;;;;;;;;;;6224689;22;20019;-87
2022/11/28 13:28:05;;;;;;;11.25;7.63;;;;;;;;;;6250220;22;20045;-87
2022/11/28 13:30:35;;;;;;;13.55;7.93;;;;;;;;;;6277647;22;20354;-87
2022/11/28 13:33:13;;;;;;;15.02;8.38;;;;;;;;;;6249846;22;20019;-87
2022/11/28 13:35:42;;;;;;;12.68;7.78;;;;;;;;;;6276799;22;20453;-87
2022/11/28 13:38:16;;;;;;;14.38;7.97;;;;;;;;;;6224379;22;20357;-87
2022/11/28 13:40:51;;;;;;;11.38;8.63;;;;;;;;;;6224982;22;20051;-87
2022/11/28 13:43:20;;;;;;;19.08;9.00;;;;;;;;;;6224621;22;20445;-87
2022/11/28 13:45:46;;;;;;;13.40;8.82;;;;;;;;;;6249823;22;20037;-87
2022/11/28 13:48:31;;;;;;;15.05;8.43;;;;;;;;;;6277571;22;20042;-87
2022/11/28 13:51:03;;;;;;;12.30;7.97;;;;;;;;;;6250655;22;20027;-87
2022/11/28 13:53:29;;;;;;;18.02;9.20;;;;;;;;;;6249890;22;20046;-87
2022/11/28 13:56:05;;;;;;;15.48;8.30;;;;;;;;;;6249793;22;20070;-87
2022/11/28 13:58:40;;;;;;;13.77;9.27;;;;;;;;;;6251230;22;20020;-87
2022/11/28 14:01:13;;;;;;;11.23;7.43;;;;;;;;;;6278269;22;20372;-87
2022/11/28 14:04:01;;;;;;;13.18;8.25;;;;;;;;;;6227320;22;20020;-87
2022/11/28 14:06:39;;;;;;;12.00;8.05;;;;;;;;;;6251249;22;20027;-87
2022/11/28 14:09:06;;;;;;;12.52;8.23;;;;;;;;;;6251453;22;20022;-87
2022/11/28 14:11:53;;;;;;;12.80;8.77;;;;;;;;;;6225712;22;20350;-87
2022/11/28 14:14:28;;;;;;;15.60;9.38;;;;;;;;;;6225749;22;20059;-87
2022/11/28 14:17:12;;;;;;;15.77;8.30;;;;;;;;;;6278461;22;20008;-87
2022/11/28 14:19:53;;;;;;;13.48;9.77;;;;;;;;;;6278578;22;20086;-87
2022/11/28 14:22:32;;;;;;;17.38;9.68;;;;;;;;;;6225753;22;20520;-87
2022/11/28 14:25:01;;;;;;;18.00;10.45;;;;;;;;;;6251002;22;20022;-87
2022/11/28 14:27:33;;;;;;;16.40;10.95;;;;;;;;;;6278415;22;20019;-87
2022/11/28 14:29:59;;;;;;;20.45;11.75;;;;;;;;;;6278556;22;20098;-87
2022/11/28 14:32:32;;;;;;;17.35;10.27;;;;;;;;;;6250997;22;20019;-87
2022/11/28 14:34:58;;;;;;;18.70;11.57;;;;;;;;;;6225956;22;20023;-87
2022/11/28 14:37:26;;;;;;;19.08;10.88;;;;;;;;;;6225727;22;20015;-87
2022/11/28 14:39:53;;;;;;;19.38;11.45;;;;;;;;;;6226368;22;20019;-87
2022/11/28 14:42:19;;;;;;;19.38;10.88;;;;;;;;;;6251007;22;20352;-87